createdAt,value
2019-04-05T00:01:57.026Z,12.70
2019-04-05T00:04:26.892Z,14.67
2019-04-05T00:06:56.703Z,17.67
2019-04-05T00:09:26.447Z,15.87
2019-04-05T00:11:56.348Z,15.63
2019-04-05T00:14:26.263Z,11.27
2019-04-05T00:16:57.336Z,15.00
2019-04-05T00:19:27.153Z,13.03
2019-04-05T00:21:56.929Z,12.53
2019-04-05T00:24:26.882Z,13.73
2019-04-05T00:26:56.580Z,12.10
2019-04-05T00:29:26.281Z,11.97
2019-04-05T00:31:56.160Z,14.67
2019-04-05T00:34:25.997Z,13.47
2019-04-05T00:36:55.936Z,12.10
2019-04-05T00:39:25.758Z,11.47
2019-04-05T00:41:55.709Z,15.60
2019-04-05T00:44:25.602Z,14.67
2019-04-05T00:46:55.609Z,15.43
2019-04-05T00:49:25.535Z,14.67
2019-04-05T00:51:55.565Z,12.23
2019-04-05T00:54:25.505Z,14.70
2019-04-05T00:56:55.274Z,12.00
2019-04-05T00:59:25.090Z,16.53
2019-04-05T01:01:54.934Z,13.37
2019-04-05T01:04:24.716Z,14.20
2019-04-05T01:06:54.611Z,15.27
2019-04-05T01:09:24.562Z,17.33
2019-04-05T01:11:54.458Z,15.27
2019-04-05T01:14:26.387Z,16.20
2019-04-05T01:16:56.637Z,16.40
2019-04-05T01:19:29.220Z,19.50
2019-04-05T01:22:02.799Z,17.87
2019-04-05T01:24:32.739Z,15.20
2019-04-05T01:27:04.186Z,22.77
2019-04-05T01:29:34.174Z,19.43
2019-04-05T01:32:04.036Z,20.43
2019-04-05T01:34:33.957Z,17.40
2019-04-05T01:37:03.870Z,17.77
2019-04-05T01:39:33.788Z,17.37
2019-04-05T01:42:03.707Z,17.57
2019-04-05T01:44:33.773Z,30.57
2019-04-05T01:47:03.627Z,83.17
2019-04-05T01:49:33.544Z,46.63
2019-04-05T01:52:03.758Z,45.20
2019-04-05T01:54:33.596Z,20.00
2019-04-05T01:57:03.619Z,24.70
2019-04-05T01:59:33.466Z,18.33
2019-04-05T02:02:03.337Z,23.60
2019-04-05T02:04:33.150Z,32.83
2019-04-05T02:07:02.888Z,50.03
2019-04-05T02:09:33.319Z,54.30
2019-04-05T02:12:03.155Z,30.17
2019-04-05T02:14:33.119Z,83.30
2019-04-05T02:17:03.145Z,75.00
2019-04-05T02:19:33.019Z,74.97
2019-04-05T02:22:02.866Z,55.70
2019-04-05T02:24:33.921Z,47.53
2019-04-05T02:27:03.887Z,40.47
2019-04-05T02:29:33.761Z,33.83
2019-04-05T02:32:03.678Z,34.93
2019-04-05T02:34:33.746Z,34.43
2019-04-05T02:37:03.630Z,28.43
2019-04-05T02:39:33.426Z,30.53
2019-04-05T02:42:03.997Z,26.57
2019-04-05T02:44:34.583Z,35.90
2019-04-05T02:47:05.209Z,29.43
2019-04-05T02:49:36.063Z,30.97
2019-04-05T02:52:06.366Z,35.20
2019-04-05T02:54:36.990Z,65.27
2019-04-05T02:57:07.304Z,62.43
2019-04-05T02:59:37.553Z,65.47
2019-04-05T03:02:08.485Z,36.77
2019-04-05T03:04:39.275Z,34.57
2019-04-05T03:07:09.263Z,30.43
2019-04-05T03:09:39.382Z,24.90
2019-04-05T03:12:09.542Z,27.03
2019-04-05T03:14:40.111Z,28.40
2019-04-05T03:17:11.971Z,30.03
2019-04-05T03:19:43.884Z,18.10
2019-04-05T03:22:15.038Z,27.10
2019-04-05T03:24:46.989Z,27.17
2019-04-05T03:27:25.031Z,30.10
2019-04-05T03:29:55.145Z,28.37
2019-04-05T03:32:26.334Z,35.63
2019-04-05T03:34:57.184Z,35.60
2019-04-05T03:37:27.153Z,28.70
2019-04-05T03:39:57.145Z,36.73
2019-04-05T03:42:27.464Z,28.53
2019-04-05T03:44:57.647Z,35.17
2019-04-05T03:47:27.597Z,30.83
2019-04-05T03:49:58.111Z,33.80
2019-04-05T03:52:28.212Z,34.77
2019-04-05T03:54:58.056Z,53.87
2019-04-05T03:57:28.069Z,90.57
2019-04-05T03:59:58.142Z,73.90
2019-04-05T04:02:28.037Z,60.67
2019-04-05T04:04:57.876Z,45.10
2019-04-05T04:07:27.793Z,34.67
2019-04-05T04:09:57.760Z,46.53
2019-04-05T04:12:28.117Z,29.43
2019-04-05T04:15:14.251Z,46.50
2019-04-05T04:17:46.433Z,46.83
2019-04-05T04:20:32.587Z,35.23
2019-04-05T04:23:02.493Z,40.87
2019-04-05T04:25:32.530Z,33.93
2019-04-05T04:28:02.713Z,32.27
2019-04-05T04:30:33.554Z,30.07
2019-04-05T04:33:03.849Z,28.70
2019-04-05T04:35:33.812Z,29.97
2019-04-05T04:38:03.699Z,30.00
2019-04-05T04:40:34.590Z,38.67
2019-04-05T04:43:04.715Z,39.87
2019-04-05T04:45:34.886Z,38.33
2019-04-05T04:48:05.978Z,32.60
2019-04-05T04:50:36.802Z,31.10
2019-04-05T04:53:07.528Z,33.90
2019-04-05T04:55:37.880Z,27.13
2019-04-05T04:58:07.870Z,26.20
2019-04-05T05:00:37.989Z,27.07
2019-04-05T05:03:08.055Z,26.43
2019-04-05T05:05:37.917Z,30.00
2019-04-05T05:08:08.528Z,25.33
2019-04-05T05:10:38.713Z,32.37
2019-04-05T05:13:09.194Z,32.90
2019-04-05T05:15:39.004Z,24.10
2019-04-05T05:18:09.254Z,29.77
2019-04-05T05:20:39.158Z,34.07
2019-04-05T05:23:09.122Z,42.50
2019-04-05T05:25:39.062Z,27.63
2019-04-05T05:28:09.129Z,22.87
2019-04-05T05:30:39.180Z,21.87
2019-04-05T05:33:10.495Z,33.80
2019-04-05T05:35:40.744Z,46.40
2019-04-05T05:38:12.354Z,31.20
2019-04-05T05:40:41.997Z,22.13
2019-04-05T05:43:11.829Z,22.53
2019-04-05T05:45:41.824Z,23.40
2019-04-05T05:48:11.726Z,23.43
2019-04-05T05:50:41.797Z,29.33
2019-04-05T05:53:11.557Z,29.87
2019-04-05T05:55:41.278Z,43.13
2019-04-05T05:58:11.248Z,37.13
2019-04-05T06:00:41.061Z,40.33
2019-04-05T06:03:11.866Z,39.90
2019-04-05T06:05:41.750Z,32.63
2019-04-05T06:08:11.642Z,39.10
2019-04-05T06:10:41.555Z,33.50
2019-04-05T06:13:11.672Z,44.87
2019-04-05T06:15:41.425Z,45.20
2019-04-05T06:18:12.675Z,46.73
2019-04-05T06:20:42.818Z,46.00
2019-04-05T06:23:13.849Z,44.77
2019-04-05T06:25:43.558Z,32.43
2019-04-05T06:28:13.453Z,43.60
2019-04-05T06:30:43.465Z,43.00
2019-04-05T06:33:13.210Z,35.63
2019-04-05T06:35:43.002Z,33.37
2019-04-05T06:38:14.095Z,31.67
2019-04-05T06:40:43.964Z,28.03
2019-04-05T06:43:13.881Z,24.57
2019-04-05T06:45:43.864Z,27.73
2019-04-05T06:48:19.497Z,24.17
2019-04-05T06:50:47.335Z,20.33
2019-04-05T06:53:17.878Z,16.17
2019-04-05T06:55:47.663Z,20.77
2019-04-05T06:58:20.600Z,19.47
2019-04-05T07:00:56.972Z,18.27
2019-04-05T07:03:20.606Z,17.00
2019-04-05T07:05:50.510Z,17.30
2019-04-05T07:08:20.491Z,18.80
2019-04-05T07:10:50.345Z,14.33
2019-04-05T07:13:20.249Z,13.43
2019-04-05T07:15:50.126Z,14.03
2019-04-05T07:18:32.648Z,15.60
2019-04-05T07:20:51.676Z,14.23
2019-04-05T07:23:21.611Z,15.70
2019-04-05T07:25:51.384Z,16.30
2019-04-05T07:28:21.305Z,13.43
2019-04-05T07:30:51.181Z,11.80
2019-04-05T07:33:21.011Z,16.77
2019-04-05T07:35:51.032Z,11.00
2019-04-05T07:38:20.762Z,11.33
2019-04-05T07:40:50.567Z,13.17
2019-04-05T07:43:20.328Z,11.40
2019-04-05T07:45:50.209Z,11.60
2019-04-05T07:48:20.110Z,16.70
2019-04-05T07:50:50.179Z,12.17
2019-04-05T07:53:19.948Z,13.27
2019-04-05T07:55:49.967Z,12.53
2019-04-05T07:58:19.861Z,14.53
2019-04-05T08:00:52.170Z,10.47
2019-04-05T08:03:23.091Z,13.23
2019-04-05T08:05:53.731Z,17.67
2019-04-05T08:08:51.606Z,20.20
2019-04-05T08:11:23.338Z,18.60
2019-04-05T08:13:55.307Z,15.10
2019-04-05T08:16:26.336Z,22.40
2019-04-05T08:18:57.949Z,21.73
2019-04-05T08:21:27.655Z,17.60
2019-04-05T08:23:58.708Z,28.43
2019-04-05T08:26:28.618Z,13.47
2019-04-05T08:28:58.518Z,15.13
2019-04-05T08:31:29.622Z,16.33
2019-04-05T08:33:59.415Z,11.33
2019-04-05T08:36:29.286Z,13.43
2019-04-05T08:38:58.944Z,11.47
2019-04-05T08:41:28.734Z,13.50
2019-04-05T08:43:58.806Z,13.97
2019-04-05T08:46:28.561Z,13.93
2019-04-05T08:49:10.033Z,11.93
2019-04-05T08:51:30.026Z,12.10
2019-04-05T08:53:59.857Z,12.60
2019-04-05T08:56:29.691Z,15.77
2019-04-05T08:58:59.357Z,14.67
2019-04-05T09:01:29.276Z,12.50
2019-04-05T09:03:59.241Z,16.63
2019-04-05T09:06:29.110Z,24.63
2019-04-05T09:08:58.959Z,29.50
2019-04-05T09:11:28.703Z,15.53
2019-04-05T09:13:58.348Z,17.20
2019-04-05T09:16:28.162Z,13.73
2019-04-05T09:18:57.934Z,13.23
2019-04-05T09:21:27.786Z,17.23
2019-04-05T09:23:59.221Z,10.77
2019-04-05T09:26:29.441Z,11.57
2019-04-05T09:28:59.078Z,10.87
2019-04-05T09:31:28.890Z,16.37
2019-04-05T09:33:58.760Z,15.17
2019-04-05T09:36:28.450Z,11.10
2019-04-05T09:38:58.236Z,11.77
2019-04-05T09:41:28.102Z,12.93
2019-04-05T09:43:58.065Z,13.00
2019-04-05T09:46:27.808Z,12.27
2019-04-05T09:48:57.611Z,13.73
2019-04-05T09:51:27.473Z,13.60
2019-04-05T09:53:57.337Z,12.53
2019-04-05T09:56:28.530Z,12.83
2019-04-05T09:58:58.302Z,11.27
2019-04-05T10:01:28.102Z,14.33
2019-04-05T10:03:57.868Z,11.33
2019-04-05T10:06:27.631Z,12.63
2019-04-05T10:08:57.345Z,12.53
2019-04-05T10:11:27.281Z,14.47
2019-04-05T10:13:57.058Z,16.10
2019-04-05T10:16:26.904Z,15.33
2019-04-05T10:18:56.601Z,12.43
2019-04-05T10:21:26.455Z,15.67
2019-04-05T10:23:56.326Z,13.93
2019-04-05T10:26:26.148Z,12.13
2019-04-05T10:28:55.941Z,13.60
2019-04-05T10:31:25.678Z,19.83
2019-04-05T10:33:56.732Z,13.57
2019-04-05T10:36:26.543Z,14.80
2019-04-05T10:38:56.444Z,11.77
2019-04-05T10:41:26.310Z,19.63
2019-04-05T10:43:58.467Z,10.93
2019-04-05T10:46:28.028Z,15.20
2019-04-05T10:48:58.012Z,14.27
2019-04-05T10:51:27.771Z,13.50
2019-04-05T10:53:57.593Z,12.30
2019-04-05T10:56:28.845Z,11.97
2019-04-05T10:58:58.546Z,15.27
2019-04-05T11:01:28.377Z,18.27
2019-04-05T11:03:58.297Z,10.57
2019-04-05T11:06:28.492Z,18.33
2019-04-05T11:08:58.265Z,15.33
2019-04-05T11:11:28.021Z,13.03
2019-04-05T11:13:58.110Z,10.93
2019-04-05T11:16:27.852Z,14.33
2019-04-05T11:18:57.719Z,14.37
2019-04-05T11:21:27.384Z,27.03
2019-04-05T11:23:57.314Z,14.37
2019-04-05T11:26:27.116Z,15.00
2019-04-05T11:28:56.925Z,14.43
2019-04-05T11:31:26.898Z,15.40
2019-04-05T11:33:56.825Z,12.00
2019-04-05T11:36:26.779Z,14.53
2019-04-05T11:38:57.157Z,13.83
2019-04-05T11:41:28.750Z,12.13
2019-04-05T11:44:01.426Z,13.73
2019-04-05T11:46:32.375Z,15.07
2019-04-05T11:49:04.430Z,17.17
2019-04-05T11:51:34.740Z,11.57
2019-04-05T11:54:04.803Z,13.27
2019-04-05T11:56:34.718Z,13.63
2019-04-05T11:59:06.894Z,14.83
2019-04-05T12:01:45.298Z,15.40
2019-04-05T12:04:15.191Z,12.67
2019-04-05T12:06:45.051Z,17.80
2019-04-05T12:09:15.042Z,12.53
2019-04-05T12:11:46.365Z,16.40
2019-04-05T12:14:29.330Z,16.53
2019-04-05T12:16:48.074Z,14.13
2019-04-05T12:19:17.909Z,15.40
2019-04-05T12:21:47.829Z,13.37
2019-04-05T12:24:17.690Z,13.83
2019-04-05T12:26:48.359Z,12.13
2019-04-05T12:29:18.122Z,14.40
2019-04-05T12:31:47.907Z,16.67
2019-04-05T12:34:21.529Z,17.93
2019-04-05T12:36:50.569Z,14.23
2019-04-05T12:39:20.919Z,19.07
2019-04-05T12:41:50.736Z,17.17
2019-04-05T12:44:20.608Z,18.20
2019-04-05T12:46:50.382Z,14.00
2019-04-05T12:49:20.198Z,13.33
2019-04-05T12:51:50.133Z,13.10
2019-04-05T12:54:20.024Z,14.53
2019-04-05T12:56:49.952Z,19.73
2019-04-05T12:59:19.750Z,20.00
2019-04-05T13:01:49.553Z,13.77
2019-04-05T13:04:21.311Z,14.20
2019-04-05T13:06:53.014Z,14.90
2019-04-05T13:09:23.535Z,12.23
2019-04-05T13:11:56.502Z,12.60
2019-04-05T13:14:26.482Z,20.13
2019-04-05T13:16:56.731Z,16.67
2019-04-05T13:19:28.546Z,13.60
2019-04-05T13:21:58.202Z,15.60
2019-04-05T13:24:27.957Z,19.53
2019-04-05T13:26:57.843Z,14.83
2019-04-05T13:29:27.681Z,12.17
2019-04-05T13:31:57.349Z,14.60
2019-04-05T13:34:27.297Z,15.37
2019-04-05T13:36:59.264Z,12.87
2019-04-05T13:39:29.697Z,16.43
2019-04-05T13:42:01.792Z,12.93
2019-04-05T13:44:32.453Z,13.60
2019-04-05T13:47:02.287Z,17.20
2019-04-05T13:49:32.223Z,18.03
2019-04-05T13:52:02.086Z,14.67
2019-04-05T13:54:31.953Z,19.23
2019-04-05T13:57:01.915Z,15.37
2019-04-05T13:59:32.041Z,17.00
2019-04-05T14:02:06.397Z,15.77
2019-04-05T14:04:33.706Z,15.57
2019-04-05T14:07:03.965Z,13.70
2019-04-05T14:09:33.818Z,20.47
2019-04-05T14:12:04.080Z,15.83
2019-04-05T14:14:33.837Z,14.20
2019-04-05T14:17:03.804Z,15.33
2019-04-05T14:19:33.678Z,17.43
2019-04-05T14:22:08.783Z,16.60
2019-04-05T14:24:36.707Z,13.23
2019-04-05T14:27:06.689Z,16.87
2019-04-05T14:29:36.398Z,16.60
2019-04-05T14:32:20.492Z,12.93
2019-04-05T14:34:37.684Z,11.93
2019-04-05T14:37:07.689Z,14.13
2019-04-05T14:39:38.784Z,17.23
2019-04-05T14:42:09.926Z,15.57
2019-04-05T14:44:41.792Z,17.13
2019-04-05T14:47:11.702Z,14.07
2019-04-05T14:49:41.496Z,18.90
2019-04-05T14:52:11.426Z,14.33
2019-04-05T14:54:43.287Z,15.87
2019-04-05T14:57:14.145Z,14.50
2019-04-05T14:59:43.940Z,13.93
2019-04-05T15:02:13.848Z,16.37
2019-04-05T15:04:43.734Z,16.83
2019-04-05T15:07:13.676Z,14.57
2019-04-05T15:09:43.520Z,12.27
2019-04-05T15:12:13.454Z,15.90
2019-04-05T15:14:43.329Z,20.37
2019-04-05T15:17:13.376Z,15.30
2019-04-05T15:19:43.163Z,13.93
2019-04-05T15:22:13.069Z,14.57
2019-04-05T15:24:44.595Z,14.90
2019-04-05T15:27:14.592Z,15.93
2019-04-05T15:29:44.596Z,16.13
2019-04-05T15:32:14.446Z,20.10
2019-04-05T15:34:44.301Z,27.90
2019-04-05T15:37:15.978Z,20.90
2019-04-05T15:39:45.878Z,15.40
2019-04-05T15:42:15.654Z,17.07
2019-04-05T15:44:45.524Z,19.37
2019-04-05T15:47:15.456Z,22.97
2019-04-05T15:49:45.400Z,21.00
2019-04-05T15:52:19.156Z,16.47
2019-04-05T15:54:46.617Z,14.80
2019-04-05T15:57:16.471Z,14.27
2019-04-05T15:59:46.127Z,17.60
2019-04-05T16:02:16.153Z,18.37
2019-04-05T16:04:46.001Z,20.87
2019-04-05T16:07:16.206Z,22.33
2019-04-05T16:09:45.814Z,15.47
2019-04-05T16:12:15.658Z,17.20
2019-04-05T16:14:46.895Z,14.93
2019-04-05T16:17:16.590Z,25.90
2019-04-05T16:19:46.427Z,22.30
2019-04-05T16:22:16.220Z,30.07
2019-04-05T16:24:46.133Z,19.23
2019-04-05T16:27:15.925Z,28.80
2019-04-05T16:29:45.717Z,19.00
2019-04-05T16:32:15.558Z,15.03
2019-04-05T16:34:45.502Z,19.77
2019-04-05T16:37:15.381Z,21.20
2019-04-05T16:39:46.475Z,22.53
2019-04-05T16:42:17.357Z,18.47
2019-04-05T16:44:47.083Z,23.63
2019-04-05T16:47:17.093Z,15.87
2019-04-05T16:49:46.727Z,20.43
2019-04-05T16:52:18.086Z,21.53
2019-04-05T16:54:48.009Z,22.30
2019-04-05T16:57:17.812Z,21.27
2019-04-05T16:59:47.688Z,24.00
2019-04-05T17:02:17.652Z,19.10
2019-04-05T17:04:47.454Z,19.67
2019-04-05T17:07:17.466Z,19.90
2019-04-05T17:09:47.277Z,19.57
2019-04-05T17:12:17.363Z,16.20
2019-04-05T17:14:47.346Z,20.97
2019-04-05T17:17:17.257Z,21.20
2019-04-05T17:19:46.999Z,21.13
2019-04-05T17:22:16.890Z,23.43
2019-04-05T17:24:46.695Z,17.27
2019-04-05T17:30:52.940Z,22.57
2019-04-05T17:34:05.401Z,21.17
2019-04-05T17:37:49.048Z,16.50
2019-04-05T17:40:20.762Z,20.97
2019-04-05T17:43:22.135Z,16.23
2019-04-05T17:46:17.692Z,16.33
2019-04-05T17:50:01.011Z,18.87
2019-04-05T17:53:31.290Z,19.30
2019-04-05T17:56:28.193Z,22.73
2019-04-05T18:02:11.871Z,29.80
2019-04-05T18:04:42.942Z,23.00
2019-04-05T18:07:12.850Z,16.77
2019-04-05T18:09:42.770Z,19.30
2019-04-05T18:12:12.812Z,19.27
2019-04-05T18:14:42.800Z,17.80
2019-04-05T18:17:13.216Z,19.07
2019-04-05T18:19:43.233Z,16.77
2019-04-05T18:22:13.242Z,17.40
2019-04-05T18:24:43.203Z,20.17
2019-04-05T18:27:12.958Z,18.90
2019-04-05T18:29:42.643Z,18.23
2019-04-05T18:32:12.878Z,16.70
2019-04-05T18:34:42.784Z,16.60
2019-04-05T18:37:12.668Z,18.83
2019-04-05T18:39:42.490Z,20.13
2019-04-05T18:42:12.525Z,22.93
2019-04-05T18:44:43.684Z,18.07
2019-04-05T18:47:13.731Z,18.50
2019-04-05T18:49:43.693Z,21.87
2019-04-05T18:52:13.684Z,22.50
2019-04-05T18:54:43.725Z,20.67
2019-04-05T18:57:14.305Z,17.30
2019-04-05T18:59:44.439Z,19.23
2019-04-05T19:02:14.234Z,19.30
2019-04-05T19:04:45.386Z,18.93
2019-04-05T19:07:15.305Z,19.00
2019-04-05T19:09:45.077Z,19.03
2019-04-05T19:12:15.084Z,18.07
2019-04-05T19:14:44.806Z,21.53
2019-04-05T19:17:23.831Z,19.13
2019-04-05T19:19:46.084Z,21.43
2019-04-05T19:22:15.909Z,18.07
2019-04-05T19:24:47.433Z,19.67
2019-04-05T19:27:17.147Z,17.03
2019-04-05T19:29:46.889Z,17.87
2019-04-05T19:49:59.718Z,23.23
2019-04-05T19:52:29.635Z,20.63
2019-04-05T19:54:59.593Z,25.23
2019-04-05T19:57:29.474Z,24.37
2019-04-05T19:59:59.395Z,25.97
2019-04-05T20:02:29.235Z,22.07
2019-04-05T20:04:59.123Z,25.13
2019-04-05T20:07:28.922Z,25.60
2019-04-05T20:10:00.085Z,22.50
2019-04-05T20:12:30.113Z,20.53
2019-04-05T20:14:59.914Z,24.00
2019-04-05T20:17:29.683Z,25.90
2019-04-05T20:19:59.423Z,23.27
2019-04-05T20:22:29.259Z,24.90
2019-04-05T20:24:59.014Z,23.33
2019-04-05T20:27:28.998Z,24.40
2019-04-05T20:29:58.899Z,22.00
2019-04-05T20:32:29.991Z,22.27
2019-04-05T20:34:59.663Z,22.87
2019-04-05T20:37:29.629Z,21.13
2019-04-05T20:39:59.488Z,22.63
2019-04-05T20:42:29.530Z,20.23
2019-04-05T20:44:59.387Z,20.97
2019-04-05T20:47:29.240Z,21.73
2019-04-05T20:50:00.270Z,22.23
2019-04-05T20:52:30.365Z,23.77
2019-04-05T20:55:00.102Z,23.53
2019-04-05T20:57:29.913Z,22.87
2019-04-05T20:59:59.810Z,25.80
2019-04-05T21:02:29.563Z,25.53
2019-04-05T21:04:59.455Z,22.40
2019-04-05T21:07:29.456Z,21.23
2019-04-05T21:09:59.424Z,24.50
2019-04-05T21:12:29.215Z,22.17
2019-04-05T21:14:59.213Z,25.87
2019-04-05T21:17:29.043Z,25.83
2019-04-05T21:19:58.997Z,25.97
2019-04-05T21:22:29.053Z,24.10
2019-04-05T21:24:58.996Z,28.07
2019-04-05T21:27:28.825Z,32.80
2019-04-05T21:29:58.683Z,30.00
2019-04-05T21:32:28.569Z,27.13
2019-04-05T21:34:58.470Z,28.60
2019-04-05T21:37:29.437Z,24.53
2019-04-05T21:39:59.334Z,24.53
2019-04-05T21:42:29.253Z,26.03
2019-04-05T21:44:59.202Z,26.73
2019-04-05T21:47:29.145Z,21.10
2019-04-05T21:49:59.016Z,21.90
2019-04-05T21:52:28.912Z,26.10
2019-04-05T21:54:58.864Z,22.77
2019-04-05T21:57:28.865Z,23.50
2019-04-05T21:59:58.654Z,20.33
2019-04-05T22:02:29.430Z,20.10
2019-04-05T22:05:01.226Z,19.83
2019-04-05T22:07:30.783Z,21.23
2019-04-05T22:10:00.492Z,23.67
2019-04-05T22:12:30.342Z,16.93
2019-04-05T22:15:00.126Z,18.50
2019-04-05T22:17:29.913Z,19.73
2019-04-05T22:19:59.781Z,21.37
2019-04-05T22:22:29.762Z,21.67
2019-04-05T22:24:59.792Z,19.77
2019-04-05T22:27:29.854Z,21.40
2019-04-05T22:29:59.717Z,19.07
2019-04-05T22:32:29.615Z,22.40
2019-04-05T22:34:59.582Z,24.87
2019-04-05T22:37:29.437Z,19.60
2019-04-05T22:39:59.071Z,20.03
2019-04-05T22:42:28.895Z,24.67
2019-04-05T22:44:58.845Z,22.63
2019-04-05T22:47:28.635Z,23.50
2019-04-05T22:49:58.422Z,21.60
2019-04-05T22:52:28.342Z,22.10
2019-04-05T22:54:58.260Z,21.70
2019-04-05T22:57:28.161Z,21.87
2019-04-05T22:59:57.902Z,22.07
2019-04-05T23:02:27.950Z,23.33
2019-04-05T23:04:57.735Z,22.57
2019-04-05T23:07:27.666Z,21.10
2019-04-05T23:09:58.714Z,19.90
2019-04-05T23:12:28.591Z,17.57
2019-04-05T23:14:58.316Z,22.03
2019-04-05T23:17:28.190Z,20.83
2019-04-05T23:19:58.139Z,20.23
2019-04-05T23:22:27.974Z,24.07
2019-04-05T23:24:57.723Z,20.13
2019-04-05T23:27:27.570Z,20.50
2019-04-05T23:29:57.738Z,23.57
2019-04-05T23:32:27.465Z,23.10
2019-04-05T23:34:57.208Z,21.23
2019-04-05T23:37:27.091Z,24.30
2019-04-05T23:39:56.845Z,26.70
2019-04-05T23:42:26.702Z,20.97
2019-04-05T23:44:56.619Z,20.60
2019-04-05T23:47:26.454Z,20.93
2019-04-05T23:49:56.339Z,24.37
2019-04-05T23:52:26.154Z,23.63
2019-04-05T23:54:56.006Z,21.10
2019-04-05T23:57:25.882Z,22.03
2019-04-05T23:59:55.813Z,26.27
